Map

Track Data

SID SEASON NUMBER BASIN SUBBASIN NAME ISO_TIME NATURE LAT LON WMO_WIND WMO_PRES WMO_AGENCY TRACK_TYPE DIST2LAND LANDFALL IFLAG USA_AGENCY USA_ATCF_ID USA_LAT USA_LON USA_RECORD USA_STATUS USA_WIND USA_PRES USA_SSHS USA_R34_NE USA_R34_SE USA_R34_SW USA_R34_NW USA_R50_NE USA_R50_SE USA_R50_SW USA_R50_NW USA_R64_NE USA_R64_SE USA_R64_SW USA_R64_NW USA_POCI USA_ROCI USA_RMW USA_EYE TOKYO_LAT TOKYO_LON TOKYO_GRADE TOKYO_WIND TOKYO_PRES TOKYO_R50_DIR TOKYO_R50_LONG TOKYO_R50_SHORT TOKYO_R30_DIR TOKYO_R30_LONG TOKYO_R30_SHORT TOKYO_LAND CMA_LAT CMA_LON CMA_CAT CMA_WIND CMA_PRES HKO_LAT HKO_LON HKO_CAT HKO_WIND HKO_PRES NEWDELHI_LAT NEWDELHI_LON NEWDELHI_GRADE NEWDELHI_WIND NEWDELHI_PRES NEWDELHI_CI NEWDELHI_DP NEWDELHI_POCI REUNION_LAT REUNION_LON REUNION_TYPE REUNION_WIND REUNION_PRES REUNION_TNUM REUNION_CI REUNION_RMW REUNION_R34_NE REUNION_R34_SE REUNION_R34_SW REUNION_R34_NW REUNION_R50_NE REUNION_R50_SE REUNION_R50_SW REUNION_R50_NW REUNION_R64_NE REUNION_R64_SE REUNION_R64_SW REUNION_R64_NW BOM_LAT BOM_LON BOM_TYPE BOM_WIND BOM_PRES BOM_TNUM BOM_CI BOM_RMW BOM_R34_NE BOM_R34_SE BOM_R34_SW BOM_R34_NW BOM_R50_NE BOM_R50_SE BOM_R50_SW BOM_R50_NW BOM_R64_NE BOM_R64_SE BOM_R64_SW BOM_R64_NW BOM_ROCI BOM_POCI BOM_EYE BOM_POS_METHOD BOM_PRES_METHOD NADI_LAT NADI_LON NADI_CAT NADI_WIND NADI_PRES WELLINGTON_LAT WELLINGTON_LON WELLINGTON_WIND WELLINGTON_PRES DS824_LAT DS824_LON DS824_STAGE DS824_WIND DS824_PRES TD9636_LAT TD9636_LON TD9636_STAGE TD9636_WIND TD9636_PRES TD9635_LAT TD9635_LON TD9635_WIND TD9635_PRES TD9635_ROCI NEUMANN_LAT NEUMANN_LON NEUMANN_CLASS NEUMANN_WIND NEUMANN_PRES MLC_LAT MLC_LON MLC_CLASS MLC_WIND MLC_PRES USA_GUST BOM_GUST BOM_GUST_PER REUNION_GUST REUNION_GUST_PER USA_SEAHGT USA_SEARAD_NE USA_SEARAD_SE USA_SEARAD_SW USA_SEARAD_NW STORM_SPEED STORM_DIR
1948318N11152 1948 85 WP MM AGNES 1948-11-13 00:00:00 TS 11.0000 152.000 main 1539 1539 O________OOO__ jtwc_wp WP231948 11.0000 152.000 50 0 11.0000 152.000 TC 50 11.0000 152.000 2 50 11.0000 152.000 50 996 360 13 297
1948318N11152 1948 85 WP MM AGNES 1948-11-13 03:00:00 TS 11.2981 151.396 main 1565 1562 P________PPP__ WP231948 11.2878 151.385 50 0 11.2878 151.385 TC 50 11.3291 151.428 2 51 11.2878 151.385 50 995 420 13 298
1948318N11152 1948 85 WP MM AGNES 1948-11-13 06:00:00 TS 11.6140 150.813 main 1580 1580 O________OPO__ jtwc_wp WP231948 11.6000 150.800 50 0 11.6000 150.800 TC 50 11.6562 150.854 2 52 11.6000 150.800 50 994 480 13 301
1948318N11152 1948 85 WP MM AGNES 1948-11-13 09:00:00 TS 11.9573 150.262 main 1612 1607 P________PPP__ WP231948 11.9498 150.257 52 0 11.9498 150.257 TC 52 11.9801 150.278 2 53 11.9498 150.257 52 992 480 13 302
1948318N11152 1948 85 WP MM AGNES 1948-11-13 12:00:00 TS 12.3000 149.700 main 1633 1631 O________OOO__ jtwc_wp WP231948 12.3000 149.700 55 0 12.3000 149.700 TC 55 12.3000 149.700 2 55 12.3000 149.700 55 991 480 13 299
1948318N11152 1948 85 WP MM AGNES 1948-11-13 15:00:00 TS 12.6093 149.072 main 1657 1656 P________PPP__ WP231948 12.6075 149.057 55 0 12.6075 149.057 TC 55 12.6145 149.117 2 56 12.6075 149.057 55 989 450 14 296
1948318N11152 1948 85 WP MM AGNES 1948-11-13 18:00:00 TS 12.9053 148.429 main 1684 1684 O________OPO__ jtwc_wp WP231948 12.9000 148.400 55 0 12.9000 148.400 TC 55 12.9213 148.517 2 57 12.9000 148.400 55 987 420 13 296
1948318N11152 1948 85 WP MM AGNES 1948-11-13 21:00:00 TS 13.2040 147.843 main 1714 1714 P________PPP__ WP231948 13.1995 147.830 57 0 13.1995 147.830 TC 57 13.2174 147.883 2 58 13.1995 147.830 57 984 420 13 296
1948318N11152 1948 85 WP MM AGNES 1948-11-14 00:00:00 TS 13.5000 147.200 main 1747 1747 O________OOO__ jtwc_wp WP231948 13.5000 147.200 60 0 13.5000 147.200 TC 60 13.5000 147.200 2 60 13.5000 147.200 60 981 420 15 293
1948318N11152 1948 85 WP MM AGNES 1948-11-14 03:00:00 TS 13.8035 146.392 main 1781 1781 P________PPP__ WP231948 13.8152 146.373 62 0 13.8152 146.373 TC 62 13.7684 146.450 2 61 13.8152 146.373 62 977 420 17 290
1948318N11152 1948 85 WP MM AGNES 1948-11-14 06:00:00 TS 14.0806 145.538 main 1818 1818 O________OPO__ jtwc_wp WP231948 14.1000 145.500 65 1 14.1000 145.500 TC 65 14.0224 145.652 2 62 14.1000 145.500 65 973 420 17 287
1948318N11152 1948 85 WP MM AGNES 1948-11-14 09:00:00 TS 14.2965 144.769 main 1848 1848 P________PPP__ WP231948 14.3070 144.750 65 1 14.3070 144.750 TC 65 14.2651 144.828 2 63 14.3070 144.750 65 970 420 16 286
1948318N11152 1948 85 WP MM AGNES 1948-11-14 12:00:00 TS 14.5000 144.000 main 1881 1881 O________OOO__ jtwc_wp WP231948 14.5000 144.000 65 1 14.5000 144.000 TC 65 14.5000 144.000 3 65 14.5000 144.000 65 968 420 16 286
1948318N11152 1948 85 WP MM AGNES 1948-11-14 15:00:00 TS 14.7424 143.158 main 1907 1853 P________PPP__ WP231948 14.7500 143.150 65 1 14.7500 143.150 TC 65 14.7196 143.183 3 67 14.7500 143.150 65 966 420 17 287
1948318N11152 1948 85 WP MM AGNES 1948-11-14 18:00:00 TS 14.9836 142.317 main 1842 1771 O________OPO__ jtwc_wp WP231948 15.0000 142.300 65 1 15.0000 142.300 TC 65 14.9345 142.369 3 70 15.0000 142.300 65 965 420 16 286
1948318N11152 1948 85 WP MM AGNES 1948-11-14 21:00:00 TS 15.1890 141.538 main 1761 1690 P________PPP__ WP231948 15.1997 141.527 70 1 15.1997 141.527 TC 70 15.1571 141.570 3 72 15.1997 141.527 70 963 420 15 286
1948318N11152 1948 85 WP MM AGNES 1948-11-15 00:00:00 TS 15.4000 140.800 main 1690 1621 O________OOO__ jtwc_wp WP231948 15.4000 140.800 75 1 15.4000 140.800 TC 75 15.4000 140.800 4 75 15.4000 140.800 75 961 420 15 288
1948318N11152 1948 85 WP MM AGNES 1948-11-15 03:00:00 TS 15.6316 140.087 main 1621 1555 P________PPP__ WP231948 15.6272 140.092 82 1 15.6272 140.092 TC 82 15.6448 140.070 4 78 15.6272 140.092 82 960 420 14 290
1948318N11152 1948 85 WP MM AGNES 1948-11-15 06:00:00 TS 15.9040 139.392 main 1555 1491 O________OPO__ jtwc_wp WP231948 15.9000 139.400 90 2 15.9000 139.400 TC 90 15.9161 139.368 4 82 15.9000 139.400 90 959 420 15 294
1948318N11152 1948 85 WP MM AGNES 1948-11-15 09:00:00 TS 16.2221 138.701 main 1491 1433 P________PPP__ WP231948 16.2197 138.707 90 2 16.2197 138.707 TC 90 16.2293 138.682 4 86 16.2197 138.707 90 957 420 15 298
1948318N11152 1948 85 WP MM AGNES 1948-11-15 12:00:00 TS 16.6000 138.000 main 1433 1378 O________OOO__ jtwc_wp WP231948 16.6000 138.000 90 2 16.6000 138.000 TC 90 16.6000 138.000 4 90 16.6000 138.000 90 956 420 16 300
1948318N11152 1948 85 WP MM AGNES 1948-11-15 15:00:00 TS 17.0318 137.245 main 1368 1322 P________PPP__ WP231948 17.0200 137.242 90 2 17.0200 137.242 TC 90 17.0672 137.253 4 90 17.0200 137.242 90 955 420 17 303
1948318N11152 1948 85 WP MM AGNES 1948-11-15 18:00:00 TS 17.5214 136.503 main 1322 1291 O________OPO__ jtwc_wp WP231948 17.5000 136.500 90 2 17.5000 136.500 TC 90 17.5856 136.512 4 90 17.5000 136.500 90 954 420 17 307
1948318N11152 1948 85 WP MM AGNES 1948-11-15 21:00:00 TS 18.0539 135.819 main 1287 1262 P________PPP__ WP231948 18.0348 135.820 90 2 18.0348 135.820 TC 90 18.1112 135.815 4 90 18.0348 135.820 90 952 450 16 311
1948318N11152 1948 85 WP MM AGNES 1948-11-16 00:00:00 TS 18.6000 135.200 main 1262 1233 O________OOO__ jtwc_wp WP231948 18.6000 135.200 90 2 18.6000 135.200 TC 90 18.6000 135.200 4 90 18.6000 135.200 90 951 480 16 314
1948318N11152 1948 85 WP MM AGNES 1948-11-16 03:00:00 TS 19.1585 134.615 main 1238 1217 P________PPP__ WP231948 19.2100 134.590 90 2 19.2100 134.590 TC 90 19.0041 134.688 4 90 19.2100 134.590 90 950 450 14 315
1948318N11152 1948 85 WP MM AGNES 1948-11-16 06:00:00 TS 19.6165 134.141 main 1213 1198 O________OPO__ jtwc_wp WP231948 19.7000 134.100 90 2 19.7000 134.100 TC 90 19.3660 134.263 4 90 19.7000 134.100 90 949 420 10 313
1948318N11152 1948 85 WP MM AGNES 1948-11-16 09:00:00 TS 19.8504 133.836 main 1204 1192 P________PPP__ WP231948 19.9022 133.812 90 2 19.9022 133.812 TC 90 19.6951 133.907 4 90 19.9022 133.812 90 947 420 6 307
1948318N11152 1948 85 WP MM AGNES 1948-11-16 12:00:00 TS 20.0000 133.600 main 1192 1171 O________OOO__ jtwc_wp WP231948 20.0000 133.600 90 2 20.0000 133.600 TC 90 20.0000 133.600 4 90 20.0000 133.600 90 946 420 6 304
1948318N11152 1948 85 WP MM AGNES 1948-11-16 15:00:00 TS 20.1924 133.300 main 1171 1144 P________PPP__ WP231948 20.1701 133.292 90 2 20.1701 133.292 TC 90 20.2593 133.322 4 91 20.1701 133.292 90 944 420 7 308
1948318N11152 1948 85 WP MM AGNES 1948-11-16 18:00:00 TS 20.4260 133.021 main 1144 1129 O________OPO__ jtwc_wp WP231948 20.4000 133.000 90 2 20.4000 133.000 TC 90 20.5041 133.083 4 92 20.4000 133.000 90 943 420 7 320
1948318N11152 1948 85 WP MM AGNES 1948-11-16 21:00:00 TS 20.7216 132.818 main 1129 1116 P________PPP__ WP231948 20.7048 132.807 92 2 20.7048 132.807 TC 92 20.7719 132.853 4 93 20.7048 132.807 92 942 420 8 330
1948318N11152 1948 85 WP MM AGNES 1948-11-17 00:00:00 TS 21.1000 132.600 main 1119 1072 O________OOO__ jtwc_wp WP231948 21.1000 132.600 95 2 21.1000 132.600 TC 95 21.1000 132.600 4 95 21.1000 132.600 95 941 420 10 328
1948318N11152 1948 85 WP MM AGNES 1948-11-17 03:00:00 TS 21.5590 132.267 main 1061 1012 P________PPP__ WP231948 21.5776 132.273 95 2 21.5776 132.273 TC 95 21.5033 132.251 4 95 21.5776 132.273 95 940 420 12 326
1948318N11152 1948 85 WP MM AGNES 1948-11-17 06:00:00 TS 22.0683 131.895 main 1001 952 O________OPO__ jtwc_wp WP231948 22.1000 131.900 95 2 22.1000 131.900 TC 95 21.9733 131.878 4 95 22.1000 131.900 95 939 420 12 326
1948318N11152 1948 85 WP MM AGNES 1948-11-17 09:00:00 TS 22.5598 131.530 main 941 883 P________PPP__ WP231948 22.5775 131.535 95 2 22.5775 131.535 TC 95 22.5065 131.517 4 95 22.5775 131.535 95 939 390 12 328
1948318N11152 1948 85 WP MM AGNES 1948-11-17 12:00:00 TS 23.1000 131.200 main 883 815 O________OOO__ jtwc_wp WP231948 23.1000 131.200 95 2 23.1000 131.200 TC 95 23.1000 131.200 4 95 23.1000 131.200 95 939 360 13 334
1948318N11152 1948 85 WP MM AGNES 1948-11-17 15:00:00 TS 23.7138 130.906 main 815 736 P________PPP__ WP231948 23.7125 130.912 95 2 23.7125 130.912 TC 95 23.7178 130.888 4 95 23.7125 130.912 95 939 390 14 340
1948318N11152 1948 85 WP MM AGNES 1948-11-17 18:00:00 TS 24.3986 130.684 main 736 659 O________OPO__ jtwc_wp WP231948 24.4000 130.700 95 2 24.4000 130.700 TC 95 24.3945 130.637 4 95 24.4000 130.700 95 940 420 15 346
1948318N11152 1948 85 WP MM AGNES 1948-11-17 21:00:00 TS 25.1265 130.517 main 659 569 P________PPP__ WP231948 25.1274 130.526 95 2 25.1274 130.526 TC 95 25.1239 130.493 4 95 25.1274 130.526 95 941 420 15 354
1948318N11152 1948 85 WP MM AGNES 1948-11-18 00:00:00 TS 25.9000 130.500 main 569 491 O________OOO__ jtwc_wp WP231948 25.9000 130.500 95 2 25.9000 130.500 TC 95 25.9000 130.500 4 95 25.9000 130.500 95 943 420 16 5
1948318N11152 1948 85 WP MM AGNES 1948-11-18 03:00:00 TS 26.6906 130.659 main 480 391 P________PPP__ WP231948 26.6773 130.660 90 2 26.6773 130.660 TC 90 26.7303 130.655 4 88 26.6773 130.660 90 945 360 17 15
1948318N11152 1948 85 WP MM AGNES 1948-11-18 06:00:00 TS 27.5246 130.993 main 391 297 O________OPO__ jtwc_wp WP231948 27.5000 131.000 85 2 27.5000 131.000 TC 85 27.5984 130.972 4 82 27.5000 131.000 85 948 300 19 21
1948318N11152 1948 85 WP MM AGNES 1948-11-18 09:00:00 TS 28.4222 131.426 main 297 227 P________PPP__ WP231948 28.4072 131.425 77 1 28.4072 131.425 TC 77 28.4674 131.428 4 76 28.4072 131.425 77 951 300 20 27
1948318N11152 1948 85 WP MM AGNES 1948-11-18 12:00:00 TS 29.3000 132.000 main 227 193 O________OOO__ jtwc_wp WP231948 29.3000 132.000 70 1 29.3000 132.000 TC 70 29.3000 132.000 4 70 29.3000 132.000 70 954 300 20 33
1948318N11152 1948 85 WP MM AGNES 1948-11-18 15:00:00 TS 30.0689 132.662 main 190 182 P________PPP__ WP231948 30.0876 132.713 70 1 30.0876 132.713 TC 70 30.0127 132.511 4 68 30.0876 132.713 70 957 270 19 40
1948318N11152 1948 85 WP MM AGNES 1948-11-18 18:00:00 TS 30.7723 133.411 main 201 172 O________OPO__ jtwc_wp WP231948 30.8000 133.500 70 1 30.8000 133.500 TC 70 30.6893 133.144 4 67 30.8000 133.500 70 960 240 18 43
1948318N11152 1948 85 WP MM AGNES 1948-11-18 21:00:00 TS 31.3999 134.091 main 178 139 P________PPP__ WP231948 31.4093 134.136 67 1 31.4093 134.136 TC 67 31.3716 133.954 4 66 31.4093 134.136 67 963 240 19 46
1948318N11152 1948 85 WP MM AGNES 1948-11-19 00:00:00 TS 32.1000 135.000 main 143 62 O________OOO__ jtwc_wp WP231948 32.1000 135.000 65 1 32.1000 135.000 TC 65 32.1000 135.000 4 65 32.1000 135.000 65 967 240 25 50
1948318N11152 1948 85 WP MM AGNES 1948-11-19 03:00:00 TS 33.0453 136.385 main 71 69 P________PPP__ WP231948 33.0935 136.404 60 0 33.0935 136.404 TC 60 32.9009 136.326 4 61 33.0935 136.404 60 970 270 32 53
1948318N11152 1948 85 WP MM AGNES 1948-11-19 06:00:00 TS 34.0260 138.056 main 67 11 O________OPO__ jtwc_wp WP231948 34.1000 138.100 55 0 34.1000 138.100 TC 55 33.7545 137.895 4 57 34.1000 138.100 55 974 300 33 56
1948318N11152 1948 85 WP MM AGNES 1948-11-19 09:00:00 TS 34.8921 139.629 main 22 0 P________PPP__ WP231948 34.9604 139.581 52 0 34.9604 139.581 TC 52 34.6304 139.643 4 53 34.8804 139.809 52 977 300 32 62
1948318N11152 1948 85 WP MM AGNES 1948-11-19 12:00:00 TS 35.5000 141.500 main 58 58 O________OOO__ jtwc_wp WP231948 35.5000 141.500 50 0 35.5000 141.500 TC 50 35.5000 141.500 2 50 35.5000 141.500 50 980 300 40 81
1948318N11152 1948 85 WP MM AGNES 1948-11-19 15:00:00 TS 35.4824 144.429 main 316 316 P________P____ WP231948 35.4824 144.429 45 0 35.4824 144.429 TC 45 2 49 94
1948318N11152 1948 85 WP MM AGNES 1948-11-19 18:00:00 TS 35.2000 147.500 main 598 598 O________O____ jtwc_wp WP231948 35.2000 147.500 40 0 35.2000 147.500 TC 40 2 44 96
1948318N11152 1948 85 WP MM AGNES 1948-11-19 21:00:00 TS 35.0494 149.825 main 808 808 P________P____ WP231948 35.0494 149.825 37 0 35.0494 149.825 TC 37 2 37 93
1948318N11152 1948 85 WP MM AGNES 1948-11-20 00:00:00 TS 35.0000 152.000 main 1003 1003 O________O____ jtwc_wp WP231948 35.0000 152.000 35 0 35.0000 152.000 TC 35 37 89
1948318N11152 1948 85 WP MM AGNES 1948-11-20 03:00:00 TS 35.0996 154.383 main 1181 1181 P________P____ WP231948 35.0996 154.383 35 0 35.0996 154.383 TC 35 41 87
1948318N11152 1948 85 WP MM AGNES 1948-11-20 06:00:00 TS 35.2000 157.000 main 1309 1309 O________O____ jtwc_wp WP231948 35.2000 157.000 35 0 35.2000 157.000 TC 35 45 90
1948318N11152 1948 85 WP MM AGNES 1948-11-20 09:00:00 TS 35.1281 159.919 main 1449 1449 P________P____ WP231948 35.1281 159.919 32 -1 35.1281 159.919 TC 32 49 93
1948318N11152 1948 85 WP MM AGNES 1948-11-20 12:00:00 TS 34.9000 163.000 main 1630 O________O____ jtwc_wp WP231948 34.9000 163.000 30 -1 34.9000 163.000 TC 30 51 95

Digital Typhoon Data and Search

About IBTrACS Database

This database is a web-friendly format of International Best Track Archive for Climate Stewardship (IBTrACS), a global best track data archive curated by NOAA dating back to 1842.

Updated: 2021-12-06